Time;durP1;ratioP1;P1;durP2;ratioP2;P2;SDS_P1;SDS_P2;PMS_P1;PMS_P2;Temp;Humidity;BMP_temperature;BMP_pressure;BME280_temperature;BME280_humidity;BME280_pressure;Samples;Min_cycle;Max_cycle;Signal;HPM_P1;HPM_P2
2022/05/06 00:02:19;;;;;;;37.13;28.30;;;;;;;9.71;76.35;100428.59;5015431;28;20033;-67
2022/05/06 00:04:44;;;;;;;34.63;26.40;;;;;;;9.68;77.11;100424.28;5033508;28;20167;-67
2022/05/06 00:07:12;;;;;;;36.40;31.73;;;;;;;9.63;77.32;100427.09;5032262;28;20029;-66
2022/05/06 00:09:38;;;;;;;37.75;27.75;;;;;;;9.62;77.11;100428.00;5032817;28;20048;-67
2022/05/06 00:12:04;;;;;;;38.90;29.65;;;;;;;9.63;76.96;100421.81;5032957;28;20033;-67
2022/05/06 00:14:30;;;;;;;28.13;22.63;;;;;;;9.66;76.92;100426.97;5014924;28;20503;-67
2022/05/06 00:16:55;;;;;;;34.47;27.38;;;;;;;9.65;76.58;100422.63;5030955;28;20041;-66
2022/05/06 00:19:21;;;;;;;39.47;29.02;;;;;;;9.56;77.73;100428.19;5032376;28;20038;-67
2022/05/06 00:21:46;;;;;;;37.80;29.05;;;;;;;9.51;78.02;100424.88;5032318;28;20076;-68
2022/05/06 00:24:11;;;;;;;31.83;25.95;;;;;;;9.49;77.82;100434.59;5031605;28;20128;-66
2022/05/06 00:26:37;;;;;;;32.53;25.23;;;;;;;9.54;77.56;100432.66;5031558;28;20041;-67
2022/05/06 00:29:02;;;;;;;28.42;24.88;;;;;;;9.58;76.97;100436.91;5031546;28;20029;-67
2022/05/06 00:31:28;;;;;;;38.85;29.02;;;;;;;9.61;77.39;100433.31;5052010;28;20576;-66
2022/05/06 00:33:53;;;;;;;37.67;26.40;;;;;;;9.61;77.42;100439.44;5051433;28;20041;-67
2022/05/06 00:36:18;;;;;;;32.45;25.75;;;;;;;9.60;77.66;100432.47;5052050;28;20037;-67
2022/05/06 00:38:44;;;;;;;31.67;23.20;;;;;;;9.63;76.86;100440.25;5053214;28;20124;-66
2022/05/06 00:41:09;;;;;;;38.38;29.25;;;;;;;9.65;77.18;100429.66;5052240;28;20051;-67
2022/05/06 00:43:39;;;;;;;36.97;26.23;;;;;;;9.64;76.64;100420.88;5051780;28;20033;-69
2022/05/06 00:46:10;;;;;;;30.58;24.45;;;;;;;9.63;76.81;100427.09;5051219;28;20037;-68
2022/05/06 00:48:35;;;;;;;35.97;28.17;;;;;;;9.57;76.79;100421.16;5051884;28;20179;-68
2022/05/06 00:51:03;;;;;;;32.10;25.60;;;;;;;9.47;76.99;100423.25;5051082;28;20124;-70
2022/05/06 00:53:28;;;;;;;37.30;29.63;;;;;;;9.38;77.20;100424.44;5050609;28;20032;-69
2022/05/06 00:55:56;;;;;;;35.67;29.88;;;;;;;9.33;78.08;100428.13;5049887;28;20063;-69
2022/05/06 00:58:23;;;;;;;32.85;27.25;;;;;;;9.37;78.18;100419.22;5050200;28;20076;-68
2022/05/06 01:00:49;;;;;;;35.15;28.40;;;;;;;9.39;77.78;100430.56;5035484;28;20045;-68
2022/05/06 01:03:14;;;;;;;32.60;25.00;;;;;;;9.35;77.76;100431.56;5060886;28;20037;-69
2022/05/06 01:05:39;;;;;;;33.63;24.38;;;;;;;9.31;78.16;100435.22;5050669;28;20033;-67
2022/05/06 01:08:05;;;;;;;32.67;26.38;;;;;;;9.31;78.21;100432.59;5050538;28;20444;-68
2022/05/06 01:10:31;;;;;;;35.83;28.35;;;;;;;9.35;78.20;100434.19;5051151;28;20043;-68
2022/05/06 01:12:56;;;;;;;34.22;26.75;;;;;;;9.37;77.62;100435.00;5048657;28;20037;-67
2022/05/06 01:15:24;;;;;;;34.33;24.40;;;;;;;9.39;78.25;100438.44;5048188;28;20040;-68
2022/05/06 01:17:51;;;;;;;35.78;26.23;;;;;;;9.39;77.55;100435.81;5050486;28;20128;-68
2022/05/06 01:20:18;;;;;;;37.45;28.63;;;;;;;9.33;77.49;100442.16;5048620;28;20033;-68
2022/05/06 01:22:49;;;;;;;32.28;27.13;;;;;;;9.28;77.85;100440.56;5049913;28;20418;-68
2022/05/06 01:25:15;;;;;;;42.85;30.95;;;;;;;9.24;77.42;100435.41;5050278;28;20036;-69
2022/05/06 01:27:53;;;;;;;38.10;31.40;;;;;;;9.19;78.47;100434.72;5051540;28;20029;-67
2022/05/06 01:30:36;;;;;;;37.20;29.17;;;;;;;9.14;78.88;100433.16;5051010;28;20429;-67
2022/05/06 01:33:04;;;;;;;43.03;34.40;;;;;;;9.08;78.13;100431.59;5050944;28;20033;-69
2022/05/06 01:35:31;;;;;;;43.92;34.92;;;;;;;9.00;78.35;100431.81;5034631;28;20033;-68
2022/05/06 01:38:02;;;;;;;39.42;31.17;;;;;;;8.93;78.71;100432.06;5030689;28;20045;-68
2022/05/06 01:40:28;;;;;;;39.85;28.45;;;;;;;8.94;79.28;100439.91;5030570;28;20548;-68
2022/05/06 01:42:57;;;;;;;36.20;26.85;;;;;;;8.95;78.15;100438.16;5031619;28;20495;-68
2022/05/06 01:45:23;;;;;;;35.85;29.38;;;;;;;8.94;78.98;100434.66;5032472;28;20060;-68
2022/05/06 01:47:51;;;;;;;41.67;31.38;;;;;;;8.92;79.19;100436.47;5029619;28;20061;-68
2022/05/06 01:50:19;;;;;;;46.67;35.58;;;;;;;8.86;78.29;100438.44;5030052;28;20042;-68
2022/05/06 01:52:48;;;;;;;42.38;32.30;;;;;;;8.77;78.71;100440.44;5029782;28;20041;-66
2022/05/06 01:55:15;;;;;;;45.05;31.95;;;;;;;8.74;79.36;100431.81;5029525;28;20037;-69
2022/05/06 01:57:41;;;;;;;39.83;32.75;;;;;;;8.75;79.81;100438.78;5029421;28;20034;-69
2022/05/06 02:00:07;;;;;;;44.22;35.03;;;;;;;8.77;79.55;100440.44;5029337;28;20034;-69
2022/05/06 02:02:33;;;;;;;53.78;37.08;;;;;;;8.78;79.79;100438.66;5035609;28;20041;-69
2022/05/06 02:05:17;;;;;;;44.45;33.78;;;;;;;8.77;79.66;100437.81;5030256;28;20044;-68
2022/05/06 02:07:52;;;;;;;41.67;31.88;;;;;;;8.80;78.67;100436.88;5028596;28;20029;-69
2022/05/06 02:10:20;;;;;;;44.03;34.70;;;;;;;8.79;78.63;100436.00;5029405;28;20398;-68
2022/05/06 02:12:46;;;;;;;50.22;38.95;;;;;;;8.69;78.78;100429.31;5029388;28;20675;-67
2022/05/06 02:15:13;;;;;;;44.65;34.33;;;;;;;8.66;79.37;100432.03;5029648;28;20426;-67
2022/05/06 02:17:39;;;;;;;52.13;39.40;;;;;;;8.58;79.71;100437.53;5028668;28;20598;-68
2022/05/06 02:20:10;;;;;;;44.63;34.28;;;;;;;8.57;79.87;100433.19;5028819;28;20120;-69
2022/05/06 02:22:37;;;;;;;41.10;30.85;;;;;;;8.60;79.64;100434.84;5028810;28;20120;-67
2022/05/06 02:25:04;;;;;;;42.13;32.40;;;;;;;8.60;79.30;100433.09;5029108;28;20091;-68
2022/05/06 02:27:30;;;;;;;42.80;32.05;;;;;;;8.60;79.66;100430.44;5027834;28;20171;-68
2022/05/06 02:35:23;;;;;;;51.95;39.45;;;;;;;8.54;80.67;100422.78;5049033;28;20120;-67
2022/05/06 02:37:48;;;;;;;53.10;39.33;;;;;;;8.55;81.05;100428.88;5047468;28;20045;-68
2022/05/06 02:40:14;;;;;;;53.67;37.50;;;;;;;8.54;81.13;100428.03;5050655;28;20033;-65
2022/05/06 02:42:39;;;;;;;58.58;41.15;;;;;;;8.58;81.16;100426.16;5048635;28;20025;-68
2022/05/06 02:45:05;;;;;;;52.05;39.22;;;;;;;8.59;80.68;100422.63;5048636;28;20037;-67
2022/05/06 02:47:30;;;;;;;53.97;40.67;;;;;;;8.56;80.44;100418.31;5047748;28;20028;-68
2022/05/06 02:49:56;;;;;;;54.40;41.22;;;;;;;8.55;80.83;100419.22;5048611;28;20052;-68
2022/05/06 02:52:24;;;;;;;62.47;43.92;;;;;;;8.55;81.17;100421.84;5048836;28;20032;-69
2022/05/06 02:54:49;;;;;;;54.70;41.10;;;;;;;8.55;80.81;100427.09;5048818;28;20494;-68
2022/05/06 02:57:15;;;;;;;56.13;39.30;;;;;;;8.55;80.56;100423.63;5049326;28;20116;-68
2022/05/06 02:59:41;;;;;;;53.45;39.60;;;;;;;8.54;80.73;100420.16;5052580;28;20039;-68
2022/05/06 03:02:07;;;;;;;57.70;42.83;;;;;;;8.58;80.69;100428.78;5052716;28;20091;-67
2022/05/06 03:04:33;;;;;;;50.55;36.60;;;;;;;8.62;80.98;100421.69;5052622;28;20044;-68
2022/05/06 03:06:59;;;;;;;58.55;37.55;;;;;;;8.64;80.40;100428.59;5051689;28;20044;-67
2022/05/06 03:09:24;;;;;;;46.65;35.63;;;;;;;8.61;79.60;100426.06;5052134;28;20029;-68
2022/05/06 03:11:50;;;;;;;53.20;42.25;;;;;;;8.60;80.28;100433.09;5052246;28;20059;-67
2022/05/06 03:14:15;;;;;;;60.60;44.38;;;;;;;8.53;80.73;100431.53;5052335;28;20029;-67
2022/05/06 03:16:40;;;;;;;53.47;40.22;;;;;;;8.52;81.38;100431.59;5052036;28;20056;-69
2022/05/06 03:19:06;;;;;;;49.20;37.45;;;;;;;8.50;80.30;100428.16;5053552;28;20052;-69
2022/05/06 03:21:31;;;;;;;61.30;43.58;;;;;;;8.45;80.84;100425.66;5054080;28;20110;-69
2022/05/06 03:23:58;;;;;;;66.35;46.30;;;;;;;8.36;81.07;100429.38;5054858;28;20052;-69
2022/05/06 03:26:24;;;;;;;71.15;49.25;;;;;;;8.31;80.84;100431.28;5051532;28;20513;-68
2022/05/06 03:28:49;;;;;;;57.25;42.65;;;;;;;8.24;80.83;100424.50;5052146;28;20079;-67
2022/05/06 03:31:15;;;;;;;54.17;41.03;;;;;;;8.22;81.32;100425.44;5052012;28;20530;-69
2022/05/06 03:33:42;;;;;;;65.78;47.17;;;;;;;8.20;80.96;100424.66;5052520;28;20040;-69
2022/05/06 03:36:11;;;;;;;56.00;42.15;;;;;;;8.18;80.75;100427.31;5051451;28;20040;-69
2022/05/06 03:38:36;;;;;;;52.63;39.75;;;;;;;8.21;81.44;100426.38;5051323;28;20052;-68
2022/05/06 03:41:01;;;;;;;52.58;37.78;;;;;;;8.24;81.54;100426.25;5050835;28;20053;-69
2022/05/06 03:43:27;;;;;;;56.10;39.22;;;;;;;8.25;81.08;100426.22;5052632;28;20033;-69
2022/05/06 03:45:53;;;;;;;48.78;36.83;;;;;;;8.25;80.95;100426.22;5055140;28;20033;-67
2022/05/06 03:48:24;;;;;;;55.03;39.72;;;;;;;8.26;80.53;100430.56;5054789;28;20086;-69
2022/05/06 03:53:34;;;;;;;63.28;44.60;;;;;;;8.21;80.11;100429.00;5052122;28;20132;-67
2022/05/06 03:56:00;;;;;;;54.17;40.38;;;;;;;8.13;80.52;100429.22;5051547;28;20072;-69
2022/05/06 03:58:25;;;;;;;50.15;37.42;;;;;;;8.13;80.65;100426.59;5051936;28;20033;-67
2022/05/06 04:00:51;;;;;;;49.50;35.67;;;;;;;8.13;80.90;100422.19;5051836;28;20448;-70
2022/05/06 04:03:17;;;;;;;48.30;36.80;;;;;;;8.14;80.87;100431.78;5050480;28;20104;-68
2022/05/06 04:05:43;;;;;;;52.53;39.55;;;;;;;8.11;80.67;100428.41;5053409;28;20175;-68
2022/05/06 04:08:08;;;;;;;59.38;40.03;;;;;;;8.09;80.74;100433.69;5050919;28;20171;-68
2022/05/06 04:10:33;;;;;;;55.25;38.15;;;;;;;8.06;81.32;100440.81;5052658;28;20090;-67
2022/05/06 04:12:59;;;;;;;55.40;42.13;;;;;;;8.06;80.97;100439.03;5051877;28;20040;-67
2022/05/06 04:15:25;;;;;;;51.72;39.67;;;;;;;8.02;80.80;100432.13;5052023;28;20037;-68
2022/05/06 04:17:50;;;;;;;61.97;43.72;;;;;;;8.05;80.83;100433.81;5052234;28;20037;-66
2022/05/06 04:25:44;;;;;;;54.92;40.53;;;;;;;8.06;80.81;100443.44;5038136;28;20195;-68
2022/05/06 04:28:09;;;;;;;50.30;37.83;;;;;;;8.09;80.48;100441.56;5033094;28;20482;-67
2022/05/06 04:30:35;;;;;;;53.20;37.35;;;;;;;8.09;80.71;100441.56;5031665;28;20051;-68
2022/05/06 04:33:01;;;;;;;54.78;38.25;;;;;;;8.10;80.25;100445.06;5031219;28;20096;-68
2022/05/06 04:35:26;;;;;;;57.22;42.15;;;;;;;8.11;80.80;100446.78;5031666;28;20030;-67
2022/05/06 04:37:51;;;;;;;46.42;37.15;;;;;;;8.13;80.89;100452.84;5030439;28;20079;-68
2022/05/06 04:40:17;;;;;;;45.53;34.25;;;;;;;8.13;80.15;100451.09;5030491;28;20037;-67
2022/05/06 04:42:45;;;;;;;55.65;40.05;;;;;;;8.17;80.64;100459.72;5031590;28;20088;-67
2022/05/06 04:45:11;;;;;;;54.50;35.83;;;;;;;8.19;80.62;100460.53;5030971;28;20505;-67
2022/05/06 04:47:37;;;;;;;50.63;38.83;;;;;;;8.20;80.44;100459.66;5030104;28;20037;-67
2022/05/06 04:50:04;;;;;;;55.50;42.45;;;;;;;8.19;79.99;100457.91;5031052;28;20037;-67
2022/05/06 04:52:30;;;;;;;56.50;43.42;;;;;;;8.14;80.44;100463.28;5012904;28;20522;-68
2022/05/06 04:54:55;;;;;;;68.13;42.38;;;;;;;8.11;80.75;100463.38;5030774;28;20115;-68
2022/05/06 04:57:21;;;;;;;63.75;42.22;;;;;;;8.15;80.49;100472.91;5030647;28;20034;-68
2022/05/06 04:59:47;;;;;;;55.92;43.08;;;;;;;8.17;81.08;100464.97;5031238;28;20502;-68
2022/05/06 05:02:17;;;;;;;59.13;42.55;;;;;;;8.25;80.69;100472.66;5030782;28;20478;-68
2022/05/06 05:04:43;;;;;;;68.93;46.97;;;;;;;8.32;80.89;100474.22;5013685;28;20040;-68
2022/05/06 05:07:09;;;;;;;62.83;43.45;;;;;;;8.38;80.54;100467.00;5031351;28;20033;-70
2022/05/06 05:09:34;;;;;;;55.40;41.47;;;;;;;8.43;81.14;100469.50;5032938;28;20040;-69
2022/05/06 05:11:59;;;;;;;52.55;39.58;;;;;;;8.54;81.14;100472.69;5031361;28;20033;-69
2022/05/06 05:14:25;;;;;;;57.95;41.83;;;;;;;8.69;80.97;100476.63;5032000;28;20056;-69
2022/05/06 05:16:50;;;;;;;55.00;41.00;;;;;;;8.78;80.45;100478.97;5029743;28;20072;-71
2022/05/06 05:19:16;;;;;;;51.90;38.40;;;;;;;8.89;80.22;100480.44;5031076;28;20094;-69
2022/05/06 05:21:42;;;;;;;56.92;43.90;;;;;;;8.99;80.13;100487.13;5013693;28;20041;-68
2022/05/06 05:24:07;;;;;;;58.33;42.80;;;;;;;9.08;79.70;100484.19;5030962;28;20056;-68
2022/05/06 05:26:33;;;;;;;57.92;41.80;;;;;;;9.12;79.22;100485.81;5030148;28;20034;-69
2022/05/06 05:28:59;;;;;;;63.92;45.30;;;;;;;9.18;79.75;100483.00;5030686;28;20044;-67
2022/05/06 05:31:24;;;;;;;53.78;40.83;;;;;;;9.24;79.97;100472.25;5012949;28;20467;-66
2022/05/06 05:33:52;;;;;;;60.97;45.15;;;;;;;9.40;79.46;100479.63;5031420;28;20490;-68
2022/05/06 05:36:17;;;;;;;48.70;38.75;;;;;;;9.48;79.69;100482.88;5031819;28;20045;-67
2022/05/06 05:38:43;;;;;;;54.67;38.55;;;;;;;9.61;78.99;100488.59;5031463;28;20046;-67
2022/05/06 05:41:08;;;;;;;52.80;39.90;;;;;;;9.70;79.18;100490.91;5041147;28;20109;-67
2022/05/06 05:49:02;;;;;;;55.17;41.70;;;;;;;9.98;78.20;100496.06;5051367;28;20048;-68
2022/05/06 05:51:27;;;;;;;61.58;43.50;;;;;;;10.06;78.70;100493.16;5050677;28;20476;-68
2022/05/06 05:53:53;;;;;;;57.15;43.90;;;;;;;10.22;78.21;100499.63;5050361;28;20079;-68
2022/05/06 05:56:18;;;;;;;64.20;41.78;;;;;;;10.35;78.31;100496.56;5050569;28;20042;-67
2022/05/06 05:58:44;;;;;;;58.70;44.88;;;;;;;10.47;78.20;100496.09;5049864;28;20035;-68
2022/05/06 06:01:13;;;;;;;51.63;39.70;;;;;;;10.63;77.73;100493.75;5049910;28;20088;-68
2022/05/06 06:03:38;;;;;;;55.20;42.30;;;;;;;10.74;77.94;100502.13;5050703;28;20056;-66
2022/05/06 06:06:04;;;;;;;65.13;46.92;;;;;;;10.90;77.34;100495.34;5050524;28;20443;-67
2022/05/06 06:08:29;;;;;;;64.82;45.65;;;;;;;11.03;77.19;100487.78;5051084;28;20048;-67
2022/05/06 06:10:54;;;;;;;53.90;40.90;;;;;;;11.19;77.22;100498.56;5050019;28;20390;-67
2022/05/06 06:13:21;;;;;;;63.30;50.30;;;;;;;11.36;76.49;100497.88;5050773;28;20029;-69
2022/05/06 06:15:46;;;;;;;58.80;47.30;;;;;;;11.56;75.73;100499.69;5049268;28;20127;-66
2022/05/06 06:18:12;;;;;;;62.15;46.10;;;;;;;11.81;75.67;100492.47;5048588;28;20467;-67
2022/05/06 06:20:37;;;;;;;58.42;42.15;;;;;;;12.10;74.48;100506.22;5049064;28;20627;-68
2022/05/06 06:23:03;;;;;;;55.40;42.40;;;;;;;12.23;73.96;100494.19;5048670;28;20041;-68
2022/05/06 06:25:29;;;;;;;55.00;45.22;;;;;;;12.33;74.06;100502.56;5048567;28;20433;-69
2022/05/06 06:27:54;;;;;;;62.85;48.17;;;;;;;12.44;73.44;100504.72;5049028;28;20045;-68
2022/05/06 06:30:20;;;;;;;58.15;45.05;;;;;;;12.63;72.96;100494.16;5051627;28;20923;-67
2022/05/06 06:32:45;;;;;;;56.85;40.90;;;;;;;12.78;71.81;100489.94;5052679;28;20101;-67
2022/05/06 06:35:10;;;;;;;53.40;42.97;;;;;;;12.78;72.03;100496.09;5055834;28;20062;-72
2022/05/06 06:37:38;;;;;;;58.20;45.67;;;;;;;12.92;72.47;100499.84;5036914;28;20033;-67
2022/05/06 06:40:07;;;;;;;47.00;37.92;;;;;;;13.12;72.22;100494.47;5022228;28;20480;-66
2022/05/06 06:42:32;;;;;;;52.03;43.63;;;;;;;13.29;70.85;100501.63;5053765;28;20498;-68
2022/05/06 06:45:00;;;;;;;47.17;37.78;;;;;;;13.53;69.98;100504.84;5054365;28;20077;-67
2022/05/06 06:47:26;;;;;;;49.33;38.50;;;;;;;13.83;69.04;100510.41;5052195;28;20123;-68
2022/05/06 06:49:51;;;;;;;49.17;39.42;;;;;;;14.08;67.83;100517.09;5029704;28;20569;-68
2022/05/06 06:52:16;;;;;;;46.05;38.58;;;;;;;14.27;67.00;100512.50;5052172;28;20033;-67
2022/05/06 06:54:42;;;;;;;49.00;38.08;;;;;;;14.47;66.63;100515.91;5053188;28;20040;-68
2022/05/06 06:57:07;;;;;;;48.45;38.30;;;;;;;14.55;65.76;100527.03;5052456;28;20041;-67
2022/05/06 06:59:32;;;;;;;52.42;40.17;;;;;;;14.72;65.09;100518.16;5054081;28;20398;-69
2022/05/06 07:01:58;;;;;;;51.67;39.05;;;;;;;14.80;65.50;100522.06;5053620;28;20116;-68
2022/05/06 07:04:23;;;;;;;51.42;38.25;;;;;;;14.96;65.34;100524.75;5035538;28;20044;-68
2022/05/06 07:12:17;;;;;;;46.47;40.05;;;;;;;14.88;65.06;100523.44;5036909;28;20167;-68
2022/05/06 07:14:43;;;;;;;46.95;38.67;;;;;;;14.98;65.25;100522.84;5052727;28;20124;-68
2022/05/06 07:17:08;;;;;;;43.38;35.88;;;;;;;15.32;64.06;100522.75;5051650;28;20107;-68
2022/05/06 07:19:33;;;;;;;47.78;35.88;;;;;;;15.48;63.25;100522.72;5052079;28;20032;-68
2022/05/06 07:21:59;;;;;;;44.60;37.15;;;;;;;15.80;61.97;100521.75;5018079;28;20127;-68
2022/05/06 07:24:25;;;;;;;44.13;36.53;;;;;;;15.91;61.45;100523.75;5034330;28;20033;-68
2022/05/06 07:26:52;;;;;;;45.67;37.50;;;;;;;15.91;61.50;100529.06;5051116;28;20116;-69
2022/05/06 07:29:19;;;;;;;50.38;38.63;;;;;;;16.01;60.76;100532.88;5053240;28;20128;-67
2022/05/06 07:31:45;;;;;;;45.92;35.60;;;;;;;16.03;61.36;100531.00;5034739;28;20044;-68
2022/05/06 07:34:11;;;;;;;50.60;35.67;;;;;;;16.19;61.02;100530.06;5051275;28;20037;-68
2022/05/06 07:36:41;;;;;;;45.65;37.97;;;;;;;16.33;60.68;100534.56;5051586;28;20041;-67
2022/05/06 07:39:10;;;;;;;45.63;37.20;;;;;;;16.51;59.80;100528.97;5052086;28;20040;-66
2022/05/06 07:41:36;;;;;;;43.58;33.72;;;;;;;16.81;59.02;100524.47;5055824;28;20033;-68
2022/05/06 07:44:01;;;;;;;45.42;33.92;;;;;;;17.03;58.46;100527.50;5054470;28;20052;-67
2022/05/06 07:46:26;;;;;;;40.47;34.55;;;;;;;17.31;58.15;100525.72;5052734;28;20029;-70
2022/05/06 07:48:52;;;;;;;38.47;31.98;;;;;;;17.47;57.49;100520.22;5050838;28;20072;-69
2022/05/06 07:51:17;;;;;;;49.80;36.15;;;;;;;17.54;56.68;100518.84;5051845;28;20037;-69
2022/05/06 07:53:43;;;;;;;44.22;38.25;;;;;;;17.76;55.90;100528.94;5052476;28;20041;-68
2022/05/06 07:56:08;;;;;;;47.63;37.38;;;;;;;18.24;55.00;100523.94;5051033;28;20056;-68
2022/05/06 07:58:35;;;;;;;44.53;39.70;;;;;;;18.42;54.12;100521.78;5051750;28;20458;-67
2022/05/06 08:01:00;;;;;;;44.92;36.85;;;;;;;18.42;54.33;100519.09;5051108;28;20029;-67
2022/05/06 08:06:09;;;;;;;39.83;35.42;;;;;;;18.65;53.98;100525.47;5050536;28;20098;-67
2022/05/06 08:08:35;;;;;;;46.00;38.63;;;;;;;18.79;52.64;100522.72;5033222;28;20494;-67
2022/05/06 08:11:01;;;;;;;44.72;36.50;;;;;;;18.51;53.61;100517.59;5051153;28;20033;-68
2022/05/06 08:13:27;;;;;;;37.83;33.05;;;;;;;18.58;53.60;100514.41;5051181;28;20082;-68
2022/05/06 08:15:54;;;;;;;43.20;35.80;;;;;;;18.64;53.13;100521.13;5050782;28;20058;-69
2022/05/06 08:18:20;;;;;;;38.17;34.17;;;;;;;18.59;53.30;100520.59;5051020;28;20063;-68
2022/05/06 08:20:46;;;;;;;37.53;32.40;;;;;;;18.51;53.07;100522.94;5037854;28;20045;-68
2022/05/06 08:23:11;;;;;;;36.67;30.45;;;;;;;18.54;53.64;100517.41;5031300;28;20047;-66
2022/05/06 08:25:37;;;;;;;39.45;30.23;;;;;;;18.27;54.45;100514.84;5031441;28;20036;-66
2022/05/06 08:28:02;;;;;;;40.30;33.63;;;;;;;18.25;54.27;100517.63;5030348;28;20435;-68
2022/05/06 08:30:28;;;;;;;39.22;34.53;;;;;;;18.10;54.62;100514.19;5029927;28;20048;-67
2022/05/06 08:32:53;;;;;;;40.03;34.20;;;;;;;18.26;54.56;100519.31;5031193;28;20621;-66
2022/05/06 08:35:21;;;;;;;35.80;31.95;;;;;;;18.41;53.82;100512.03;5030914;28;20222;-68
2022/05/06 08:37:48;;;;;;;41.97;33.58;;;;;;;18.50;53.87;100522.09;5030987;28;20128;-68
2022/05/06 08:40:17;;;;;;;35.15;31.35;;;;;;;18.75;53.04;100512.31;5030850;28;20033;-71
2022/05/06 08:42:43;;;;;;;33.53;27.73;;;;;;;19.01;51.58;100507.81;5030776;28;20091;-69
2022/05/06 08:50:55;;;;;;;35.85;31.90;;;;;;;19.21;51.48;100509.03;5050594;28;20115;-69
2022/05/06 08:53:31;;;;;;;32.75;28.77;;;;;;;19.40;50.44;100509.38;5050986;28;20417;-68
2022/05/06 08:55:59;;;;;;;34.55;30.50;;;;;;;19.50;49.02;100507.69;5050648;28;20091;-68
2022/05/06 08:58:28;;;;;;;29.33;24.67;;;;;;;19.55;48.26;100514.53;5048691;28;20049;-67
2022/05/06 09:01:13;;;;;;;32.75;27.40;;;;;;;19.82;47.22;100517.81;5050231;28;20061;-68
2022/05/06 09:03:43;;;;;;;31.10;25.35;;;;;;;19.65;46.64;100515.53;5050820;28;20078;-68
2022/05/06 09:06:26;;;;;;;30.85;26.10;;;;;;;19.84;47.15;100520.41;5050567;28;20495;-68
2022/05/06 09:08:53;;;;;;;26.35;22.17;;;;;;;20.13;45.31;100516.31;5051148;28;20406;-69
2022/05/06 09:14:16;;;;;;;31.10;21.63;;;;;;;20.61;45.09;100507.25;5049324;28;20101;-68
2022/05/06 09:16:44;;;;;;;34.65;27.63;;;;;;;20.68;45.65;100511.16;5049369;28;20043;-69
2022/05/06 09:19:14;;;;;;;29.98;25.80;;;;;;;20.69;44.96;100512.00;5049565;28;20043;-69
2022/05/06 09:21:41;;;;;;;24.38;21.17;;;;;;;20.73;43.92;100513.47;5049889;28;20052;-68
2022/05/06 09:24:17;;;;;;;25.77;22.05;;;;;;;21.71;42.47;100518.84;5049905;28;20044;-68
2022/05/06 09:27:02;;;;;;;26.95;22.77;;;;;;;22.53;39.69;100517.25;5049510;28;20128;-68
2022/05/06 09:29:30;;;;;;;23.80;21.30;;;;;;;22.90;38.15;100520.22;5049510;28;20147;-68
2022/05/06 09:31:59;;;;;;;22.10;19.45;;;;;;;23.34;36.88;100518.91;5043268;28;20120;-69
2022/05/06 09:34:30;;;;;;;25.92;23.20;;;;;;;23.42;36.28;100517.34;5049141;28;20502;-68
2022/05/06 09:36:56;;;;;;;27.50;21.50;;;;;;;23.71;36.35;100515.50;5047465;28;20044;-68
2022/05/06 09:39:22;;;;;;;23.85;20.73;;;;;;;24.73;34.40;100511.34;5049517;28;20105;-69
2022/05/06 09:41:48;;;;;;;27.65;22.50;;;;;;;24.89;34.52;100500.75;5050732;28;20439;-69
2022/05/06 09:44:13;;;;;;;23.65;21.25;;;;;;;25.44;33.39;100502.53;5047341;28;20119;-69
2022/05/06 09:46:39;;;;;;;23.70;21.40;;;;;;;26.00;32.67;100498.66;5048646;28;20040;-69
2022/05/06 09:49:05;;;;;;;31.40;19.75;;;;;;;26.48;31.38;100499.09;5049093;28;20060;-68
2022/05/06 09:51:36;;;;;;;18.33;16.63;;;;;;;26.48;30.92;100501.78;5049042;28;20045;-69
2022/05/06 09:54:05;;;;;;;23.75;20.60;;;;;;;26.34;31.66;100489.75;5049536;28;20379;-69
2022/05/06 09:56:30;;;;;;;24.02;18.45;;;;;;;26.53;31.52;100492.25;5048813;28;20029;-69
2022/05/06 09:58:57;;;;;;;23.17;20.70;;;;;;;26.87;30.40;100493.22;5050635;28;20434;-68
2022/05/06 10:01:23;;;;;;;21.88;18.90;;;;;;;26.95;30.61;100487.81;5050588;28;20056;-67
2022/05/06 10:03:51;;;;;;;23.95;18.58;;;;;;;27.19;30.41;100482.50;5050805;28;20045;-66
2022/05/06 10:06:17;;;;;;;24.85;21.02;;;;;;;27.54;29.31;100487.78;5029932;28;20037;-68
2022/05/06 10:08:51;;;;;;;23.13;18.92;;;;;;;27.61;28.73;100486.09;5030176;28;20046;-68
2022/05/06 10:11:20;;;;;;;;;;;;;;;27.58;28.53;100489.16;5031633;28;20518;-67
2022/05/06 10:13:47;;;;;;;21.50;16.02;;;;;;;27.53;26.37;100483.38;5051078;28;20002;-67
2022/05/06 10:16:13;;;;;;;16.52;14.63;;;;;;;27.53;27.29;100478.81;5049848;28;20071;-67
2022/05/06 10:18:40;;;;;;;21.95;14.35;;;;;;;27.76;27.60;100480.84;5049707;28;20065;-68
2022/05/06 10:21:09;;;;;;;19.02;14.80;;;;;;;28.08;26.72;100489.97;5042969;28;20026;-68
2022/05/06 10:23:55;;;;;;;17.77;15.73;;;;;;;28.04;26.19;100481.34;5030918;28;20029;-67
2022/05/06 10:26:39;;;;;;;22.67;16.10;;;;;;;28.03;27.25;100480.53;5049669;28;20033;-67
2022/05/06 10:35:04;;;;;;;25.55;16.60;;;;;;;28.20;27.06;100472.34;5029394;28;20591;-68
2022/05/06 10:37:43;;;;;;;24.35;15.35;;;;;;;28.35;26.25;100470.59;5029066;28;20034;-67
2022/05/06 10:40:28;;;;;;;16.33;14.57;;;;;;;28.19;26.34;100471.50;5029933;28;20593;-67
2022/05/06 10:42:54;;;;;;;19.45;17.25;;;;;;;27.72;27.40;100471.38;5029218;28;20064;-68
2022/05/06 10:45:24;;;;;;;23.83;18.20;;;;;;;27.41;27.98;100472.03;5029946;28;20128;-67
2022/05/06 10:47:50;;;;;;;21.27;16.88;;;;;;;26.87;28.98;100467.00;5028193;28;20041;-67
2022/05/06 10:50:18;;;;;;;27.77;17.17;;;;;;;26.54;29.19;100466.03;5029519;28;20045;-68
2022/05/06 10:52:45;;;;;;;24.00;16.92;;;;;;;26.15;30.58;100455.66;5029949;28;20507;-67
2022/05/06 10:55:13;;;;;;;25.70;20.58;;;;;;;25.62;31.27;100454.78;5029814;28;20787;-68
2022/05/06 10:57:51;;;;;;;24.13;18.88;;;;;;;25.21;31.83;100464.38;5028611;28;20084;-68
2022/05/06 11:00:18;;;;;;;23.08;20.15;;;;;;;24.36;32.97;100461.78;5029484;28;20871;-68
2022/05/06 11:02:44;;;;;;;30.02;18.92;;;;;;;24.06;33.48;100460.22;5029809;28;20096;-67
2022/05/06 11:05:15;;;;;;;27.15;21.40;;;;;;;23.90;34.56;100458.13;5029738;28;20029;-67
2022/05/06 11:07:43;;;;;;;28.15;20.90;;;;;;;23.81;34.84;100453.59;5029027;28;20040;-67
2022/05/06 11:10:16;;;;;;;30.85;22.60;;;;;;;23.73;34.35;100459.72;5029737;28;20117;-68
2022/05/06 11:12:48;;;;;;;27.65;21.40;;;;;;;22.85;35.78;100457.94;5030116;28;20037;-67
2022/05/06 11:15:16;;;;;;;23.67;20.00;;;;;;;22.70;35.65;100462.84;5029929;28;20522;-66
2022/05/06 11:17:43;;;;;;;27.90;19.58;;;;;;;22.85;35.85;100464.16;5028730;28;20095;-67
2022/05/06 11:20:31;;;;;;;27.63;21.08;;;;;;;22.88;36.68;100458.50;5032758;28;20407;-70
2022/05/06 11:23:05;;;;;;;25.63;20.65;;;;;;;22.86;36.36;100454.25;5033087;28;20043;-68
2022/05/06 11:25:32;;;;;;;24.63;21.88;;;;;;;22.55;36.80;100456.16;5053202;28;20110;-67
2022/05/06 11:28:27;;;;;;;29.77;20.20;;;;;;;22.80;36.49;100461.03;5052139;28;20025;-68
2022/05/06 11:30:53;;;;;;;27.08;21.70;;;;;;;22.71;35.35;100459.16;5053284;28;20045;-68
2022/05/06 11:33:19;;;;;;;23.25;19.90;;;;;;;22.65;35.63;100454.34;5054103;28;20036;-68
2022/05/06 11:35:47;;;;;;;21.73;19.13;;;;;;;22.69;35.36;100453.06;5051557;28;20506;-67
2022/05/06 11:38:13;;;;;;;21.33;19.02;;;;;;;22.76;35.11;100454.22;5050137;28;20071;-68
2022/05/06 11:40:39;;;;;;;25.20;20.00;;;;;;;22.75;35.08;100452.53;5052837;28;20056;-68
2022/05/06 11:43:04;;;;;;;22.58;18.52;;;;;;;22.56;35.62;100444.41;5052246;28;20114;-68
2022/05/06 11:48:20;;;;;;;27.95;22.40;;;;;;;22.67;36.31;100433.56;5051243;28;20076;-68
2022/05/06 11:50:48;;;;;;;30.20;22.40;;;;;;;22.26;37.25;100438.06;5040560;28;20037;-68
2022/05/06 11:53:17;;;;;;;25.95;20.48;;;;;;;21.64;38.21;100438.00;5031569;28;20033;-68
2022/05/06 11:55:43;;;;;;;30.95;23.75;;;;;;;21.43;38.20;100437.97;5031291;28;20546;-68
2022/05/06 11:58:12;;;;;;;26.30;20.02;;;;;;;21.19;38.84;100438.19;5030646;28;20045;-69
2022/05/06 12:00:38;;;;;;;28.70;21.63;;;;;;;21.55;37.83;100435.22;5016206;28;20107;-68